createdAt,value
2022-08-23T00:01:25.027Z,11.00
2022-08-23T00:03:55.442Z,10.90
2022-08-23T00:06:24.366Z,10.90
2022-08-23T00:08:53.793Z,10.80
2022-08-23T00:11:31.152Z,10.80
2022-08-23T00:14:00.752Z,10.70
2022-08-23T00:16:30.691Z,10.70
2022-08-23T00:18:59.423Z,10.70
2022-08-23T00:21:29.287Z,10.60
2022-08-23T00:23:57.837Z,10.50
2022-08-23T00:26:26.150Z,10.50
2022-08-23T00:28:54.283Z,10.40
2022-08-23T00:31:22.414Z,10.30
2022-08-23T00:33:53.175Z,10.30
2022-08-23T00:36:21.258Z,10.30
2022-08-23T00:38:49.980Z,10.20
2022-08-23T00:41:18.334Z,10.20
2022-08-23T00:44:04.362Z,10.10
2022-08-23T00:47:00.845Z,10.10
2022-08-23T00:49:32.588Z,10.10
2022-08-23T00:52:07.603Z,10.00
2022-08-23T00:54:37.888Z,10.00
2022-08-23T00:57:12.927Z,9.90
2022-08-23T00:59:41.674Z,9.90
2022-08-23T01:02:10.835Z,9.90
2022-08-23T01:04:42.899Z,9.90
2022-08-23T01:07:17.303Z,9.80
2022-08-23T01:09:48.752Z,9.80
2022-08-23T01:12:31.121Z,9.80
2022-08-23T01:15:03.799Z,9.80
2022-08-23T01:17:36.676Z,9.90
2022-08-23T01:20:10.882Z,9.90
2022-08-23T01:22:45.016Z,9.90
2022-08-23T01:25:19.373Z,10.00
2022-08-23T01:27:48.493Z,10.00
2022-08-23T01:30:21.247Z,10.10
2022-08-23T01:32:51.836Z,10.30
2022-08-23T01:37:49.348Z,10.50
2022-08-23T01:40:19.995Z,10.60
2022-08-23T01:42:49.550Z,10.70
2022-08-23T01:45:18.245Z,10.80
2022-08-23T01:47:46.459Z,10.90
2022-08-23T01:50:15.094Z,11.00
2022-08-23T01:52:46.832Z,11.00
2022-08-23T01:55:19.717Z,11.10
2022-08-23T01:57:53.094Z,11.10
2022-08-23T02:00:24.000Z,11.20
2022-08-23T02:02:52.474Z,11.20
2022-08-23T02:05:22.678Z,11.20
2022-08-23T02:07:50.901Z,11.20
2022-08-23T02:10:21.971Z,11.20
2022-08-23T02:12:51.447Z,11.10
2022-08-23T02:15:21.814Z,11.00
2022-08-23T02:17:49.941Z,10.90
2022-08-23T02:20:19.444Z,10.80
2022-08-23T02:22:47.590Z,10.70
2022-08-23T02:25:15.762Z,10.60
2022-08-23T02:27:45.172Z,10.50
2022-08-23T02:30:15.344Z,10.40
2022-08-23T02:32:44.118Z,10.30
2022-08-23T02:35:13.668Z,10.20
2022-08-23T02:37:41.940Z,10.20
2022-08-23T02:40:11.579Z,10.20
2022-08-23T02:42:39.897Z,10.10
2022-08-23T02:45:10.853Z,10.00
2022-08-23T02:47:45.798Z,10.00
2022-08-23T02:50:22.829Z,10.10
2022-08-23T02:52:51.417Z,10.20
2022-08-23T02:55:20.477Z,10.30
2022-08-23T02:57:48.890Z,10.40
2022-08-23T03:00:19.656Z,10.40
2022-08-23T03:02:58.459Z,10.50
2022-08-23T03:05:33.139Z,10.60
2022-08-23T03:08:02.685Z,10.70
2022-08-23T03:10:37.115Z,10.80
2022-08-23T03:13:05.518Z,10.90
2022-08-23T03:15:35.208Z,11.00
2022-08-23T03:18:03.612Z,11.10
2022-08-23T03:20:31.993Z,11.20
2022-08-23T03:23:01.574Z,11.30
2022-08-23T03:25:30.082Z,11.40
2022-08-23T03:28:07.641Z,11.40
2022-08-23T03:30:40.820Z,11.50
2022-08-23T03:33:10.352Z,11.60
2022-08-23T03:35:38.776Z,11.70
2022-08-23T03:38:08.333Z,11.70
2022-08-23T03:40:37.346Z,11.70
2022-08-23T03:43:06.495Z,11.80
2022-08-23T03:45:35.263Z,11.90
2022-08-23T03:48:05.639Z,11.90
2022-08-23T03:50:36.151Z,12.00
2022-08-23T03:53:04.405Z,12.00
2022-08-23T03:55:32.995Z,12.00
2022-08-23T03:58:01.768Z,12.00
2022-08-23T04:00:30.160Z,12.10
2022-08-23T04:02:58.274Z,12.10
2022-08-23T04:05:29.113Z,12.20
2022-08-23T04:08:02.571Z,12.20
2022-08-23T04:10:30.953Z,12.30
2022-08-23T04:12:59.459Z,12.30
2022-08-23T04:15:27.638Z,12.30
2022-08-23T04:17:55.765Z,12.30
2022-08-23T04:20:25.326Z,12.40
2022-08-23T04:23:03.155Z,12.40
2022-08-23T04:25:35.949Z,12.50
2022-08-23T04:28:06.307Z,12.50
2022-08-23T04:30:35.569Z,12.50
2022-08-23T04:33:10.573Z,12.60
2022-08-23T04:35:41.432Z,12.60
2022-08-23T04:38:24.698Z,12.60
2022-08-23T04:41:13.779Z,12.70
2022-08-23T04:43:44.032Z,12.70
2022-08-23T04:46:15.701Z,12.80
2022-08-23T04:48:46.523Z,12.80
2022-08-23T04:51:15.780Z,12.80
2022-08-23T04:53:45.761Z,12.90
2022-08-23T04:56:40.184Z,12.90
2022-08-23T04:59:10.315Z,13.00
2022-08-23T05:01:43.848Z,13.10
2022-08-23T05:04:12.345Z,13.20
2022-08-23T05:06:41.551Z,13.30
2022-08-23T05:09:11.022Z,13.30
2022-08-23T05:11:39.356Z,13.40
2022-08-23T05:14:08.261Z,13.40
2022-08-23T05:16:36.569Z,13.40
2022-08-23T05:19:10.223Z,13.50
2022-08-23T05:21:44.195Z,13.50
2022-08-23T05:24:14.082Z,13.60
2022-08-23T05:26:44.364Z,13.60
2022-08-23T05:29:13.503Z,13.70
2022-08-23T05:31:46.885Z,13.70
2022-08-23T05:34:22.612Z,13.70
2022-08-23T05:36:55.363Z,13.80
2022-08-23T05:39:36.023Z,13.80
2022-08-23T05:42:07.969Z,13.80
2022-08-23T05:44:37.310Z,13.90
2022-08-23T05:47:11.355Z,13.90
2022-08-23T05:49:53.981Z,13.90
2022-08-23T05:52:23.588Z,14.00
2022-08-23T05:54:53.578Z,14.00
2022-08-23T05:57:50.501Z,14.00
2022-08-23T06:00:19.858Z,13.90
2022-08-23T06:02:48.534Z,13.90
2022-08-23T06:05:18.183Z,14.00
2022-08-23T06:07:47.887Z,14.00
2022-08-23T06:10:20.844Z,14.00
2022-08-23T06:12:58.135Z,14.00
2022-08-23T06:15:26.420Z,14.00
2022-08-23T06:17:54.729Z,14.00
2022-08-23T06:20:23.077Z,14.10
2022-08-23T06:23:07.681Z,14.10
2022-08-23T06:25:39.253Z,14.20
2022-08-23T06:28:17.850Z,14.20
2022-08-23T06:30:47.876Z,14.30
2022-08-23T06:33:43.853Z,14.30
2022-08-23T06:36:40.598Z,14.30
2022-08-23T06:39:22.310Z,14.30
2022-08-23T06:42:38.032Z,14.30
2022-08-23T06:45:07.845Z,14.40
2022-08-23T06:47:41.352Z,14.40
2022-08-23T06:50:10.820Z,14.50
2022-08-23T06:52:57.373Z,14.50
2022-08-23T06:55:35.477Z,14.50
2022-08-23T06:58:24.281Z,14.50
2022-08-23T07:01:44.282Z,14.60
2022-08-23T07:04:21.277Z,14.70
2022-08-23T07:07:11.951Z,14.80
2022-08-23T07:09:41.888Z,14.80
2022-08-23T07:12:11.078Z,14.90
2022-08-23T07:14:44.286Z,15.00
2022-08-23T07:17:14.497Z,15.20
2022-08-23T07:19:44.435Z,15.30
2022-08-23T07:22:15.581Z,15.40
2022-08-23T07:24:44.230Z,15.50
2022-08-23T07:27:13.054Z,15.60
2022-08-23T07:30:03.615Z,15.80
2022-08-23T07:32:32.265Z,15.90
2022-08-23T07:35:08.925Z,16.00
2022-08-23T07:37:40.137Z,16.10
2022-08-23T07:40:10.429Z,16.30
2022-08-23T07:42:49.053Z,16.40
2022-08-23T07:45:19.128Z,16.40
2022-08-23T07:47:54.400Z,16.50
2022-08-23T07:50:24.396Z,16.70
2022-08-23T07:52:58.585Z,16.70
2022-08-23T07:55:26.889Z,16.90
2022-08-23T07:58:13.509Z,17.10
2022-08-23T08:00:54.241Z,17.30
2022-08-23T08:03:44.702Z,17.50
2022-08-23T08:06:42.343Z,17.70
2022-08-23T08:09:13.009Z,17.80
2022-08-23T08:11:44.597Z,17.90
2022-08-23T08:14:15.385Z,18.20
2022-08-23T08:16:55.031Z,18.60
2022-08-23T08:19:41.746Z,18.80
2022-08-23T08:22:28.491Z,18.50
2022-08-23T08:25:18.580Z,18.30
2022-08-23T08:27:48.447Z,18.50
2022-08-23T08:30:18.263Z,18.60
2022-08-23T08:32:48.707Z,18.70
2022-08-23T08:35:17.574Z,18.70
2022-08-23T08:37:46.682Z,18.80
2022-08-23T08:40:24.814Z,18.80
2022-08-23T08:43:13.879Z,19.10
2022-08-23T08:45:58.849Z,19.50
2022-08-23T08:48:41.895Z,19.50
2022-08-23T08:51:28.756Z,20.40
2022-08-23T08:53:59.992Z,21.20
2022-08-23T08:56:33.560Z,21.60
2022-08-23T08:59:10.971Z,21.40
2022-08-23T09:01:39.978Z,22.10
2022-08-23T09:04:09.671Z,23.00
2022-08-23T09:06:52.045Z,22.30
2022-08-23T09:09:35.277Z,22.40
2022-08-23T09:12:16.194Z,22.60
2022-08-23T09:14:56.026Z,22.60
2022-08-23T09:17:34.544Z,23.40
2022-08-23T09:20:06.671Z,24.40
2022-08-23T09:22:38.851Z,24.30
2022-08-23T09:25:14.705Z,23.90
2022-08-23T09:27:54.581Z,22.80
2022-08-23T09:30:23.433Z,22.20
2022-08-23T09:32:56.046Z,22.70
2022-08-23T09:35:27.068Z,23.30
2022-08-23T09:38:22.048Z,23.30
2022-08-23T09:40:56.238Z,22.40
2022-08-23T09:43:26.987Z,21.40
2022-08-23T09:46:00.912Z,21.00
2022-08-23T09:48:40.761Z,21.30
2022-08-23T09:51:23.745Z,22.60
2022-08-23T09:54:04.499Z,25.00
2022-08-23T09:56:36.763Z,26.60
2022-08-23T09:59:22.396Z,27.90
2022-08-23T10:02:02.241Z,27.80
2022-08-23T10:04:42.061Z,26.20
2022-08-23T10:07:30.607Z,25.40
2022-08-23T10:10:26.486Z,24.30
2022-08-23T10:12:59.742Z,24.30
2022-08-23T10:15:43.712Z,23.90
2022-08-23T10:18:26.313Z,22.60
2022-08-23T10:21:02.984Z,21.60
2022-08-23T10:23:44.923Z,21.10
2022-08-23T10:26:22.760Z,20.90
2022-08-23T10:29:16.905Z,20.60
2022-08-23T10:31:58.896Z,20.70
2022-08-23T10:34:50.583Z,21.00
2022-08-23T10:37:35.963Z,21.50
2022-08-23T10:40:15.021Z,21.70
2022-08-23T10:42:56.666Z,21.60
2022-08-23T10:45:28.591Z,21.30
2022-08-23T10:48:09.516Z,20.20
2022-08-23T10:50:45.124Z,19.90
2022-08-23T10:53:28.712Z,19.40
2022-08-23T10:56:06.386Z,19.30
2022-08-23T10:58:47.758Z,19.30
2022-08-23T11:01:26.602Z,19.60
2022-08-23T11:04:03.030Z,20.10
2022-08-23T11:06:48.580Z,20.80
2022-08-23T11:09:50.274Z,21.60
2022-08-23T11:12:53.183Z,22.00
2022-08-23T11:15:29.721Z,22.20
2022-08-23T11:18:01.986Z,22.00
2022-08-23T11:21:10.859Z,22.20
2022-08-23T11:23:50.798Z,22.10
2022-08-23T11:27:06.029Z,22.10
2022-08-23T11:29:43.773Z,21.90
2022-08-23T11:32:45.903Z,21.80
2022-08-23T11:35:43.150Z,21.60
2022-08-23T11:38:14.055Z,21.60
2022-08-23T11:41:14.865Z,21.60
2022-08-23T11:43:45.587Z,21.10
2022-08-23T11:46:34.696Z,20.80
2022-08-23T11:49:41.677Z,20.90
2022-08-23T11:52:26.074Z,20.90
2022-08-23T11:55:25.625Z,20.80
2022-08-23T11:58:06.108Z,21.00
2022-08-23T12:00:59.916Z,20.50
2022-08-23T12:03:34.911Z,20.50
2022-08-23T12:06:15.976Z,20.40
2022-08-23T12:08:54.028Z,20.20
2022-08-23T12:11:25.538Z,20.20
2022-08-23T12:14:04.592Z,20.30
2022-08-23T12:16:44.157Z,20.00
2022-08-23T12:19:39.461Z,20.00
2022-08-23T12:22:14.092Z,20.30
2022-08-23T12:24:54.174Z,20.80
2022-08-23T12:27:31.829Z,20.80
2022-08-23T12:30:08.302Z,21.00
2022-08-23T12:32:45.833Z,21.30
2022-08-23T12:35:36.369Z,21.30
2022-08-23T12:38:10.160Z,21.00
2022-08-23T12:40:44.059Z,21.40
2022-08-23T12:43:23.133Z,21.80
2022-08-23T12:45:59.743Z,22.00
2022-08-23T12:48:34.199Z,22.20
2022-08-23T12:51:08.730Z,22.60
2022-08-23T12:53:45.517Z,22.50
2022-08-23T12:56:21.433Z,22.30
2022-08-23T12:58:59.382Z,22.60
2022-08-23T13:01:31.155Z,22.20
2022-08-23T13:04:05.061Z,22.10
2022-08-23T13:06:40.366Z,21.90
2022-08-23T13:09:16.347Z,21.60
2022-08-23T13:11:45.961Z,21.50
2022-08-23T13:14:25.285Z,21.50
2022-08-23T13:16:54.028Z,21.70
2022-08-23T13:19:27.395Z,22.00
2022-08-23T13:22:15.236Z,22.30
2022-08-23T13:24:46.174Z,22.50
2022-08-23T13:27:18.725Z,22.80
2022-08-23T13:30:00.801Z,22.80
2022-08-23T13:32:33.675Z,22.40
2022-08-23T13:35:38.820Z,22.30
2022-08-23T13:38:20.924Z,22.30
2022-08-23T13:41:04.938Z,22.40
2022-08-23T13:43:38.861Z,22.40
2022-08-23T13:46:17.978Z,22.80
2022-08-23T13:48:55.554Z,22.60
2022-08-23T13:51:31.161Z,22.50
2022-08-23T13:54:04.980Z,22.20
2022-08-23T13:56:37.594Z,21.80
2022-08-23T13:59:10.724Z,21.70
2022-08-23T14:01:39.003Z,21.70
2022-08-23T14:04:07.828Z,21.60
2022-08-23T14:06:36.039Z,21.80
2022-08-23T14:09:06.924Z,22.00
2022-08-23T14:11:35.609Z,22.10
2022-08-23T14:14:04.213Z,22.30
2022-08-23T14:16:35.551Z,22.40
2022-08-23T14:19:16.629Z,22.50
2022-08-23T14:21:57.050Z,22.70
2022-08-23T14:24:27.277Z,22.80
2022-08-23T14:26:56.665Z,22.90
2022-08-23T14:29:28.014Z,22.40
2022-08-23T14:31:57.319Z,22.20
2022-08-23T14:34:26.621Z,22.10
2022-08-23T14:39:44.624Z,21.70
2022-08-23T14:42:17.830Z,21.60
2022-08-23T14:44:46.015Z,21.60
2022-08-23T14:47:14.160Z,21.40
2022-08-23T14:49:43.399Z,21.20
2022-08-23T14:52:13.935Z,21.00
2022-08-23T14:54:42.876Z,20.90
2022-08-23T14:57:12.774Z,21.00
2022-08-23T14:59:41.244Z,21.20
2022-08-23T15:02:11.900Z,21.30
2022-08-23T15:04:42.164Z,21.50
2022-08-23T15:07:19.116Z,21.70
2022-08-23T15:09:48.296Z,21.90
2022-08-23T15:15:09.583Z,22.00
2022-08-23T15:17:46.495Z,22.00
2022-08-23T15:20:15.566Z,22.20
2022-08-23T15:22:45.002Z,22.20
2022-08-23T15:25:20.802Z,22.40
2022-08-23T15:27:52.616Z,22.40
2022-08-23T15:30:22.043Z,22.40
2022-08-23T15:32:52.618Z,22.50
2022-08-23T15:35:25.982Z,22.30
2022-08-23T15:37:56.020Z,22.40
2022-08-23T15:40:25.619Z,22.60
2022-08-23T15:42:55.473Z,22.60
2022-08-23T15:45:23.748Z,22.40
2022-08-23T15:47:54.942Z,22.40
2022-08-23T15:50:27.059Z,22.40
2022-08-23T15:52:55.591Z,22.40
2022-08-23T15:55:23.857Z,22.50
2022-08-23T15:57:54.453Z,22.50
2022-08-23T16:00:25.851Z,22.40
2022-08-23T16:03:19.633Z,22.20
2022-08-23T16:05:45.341Z,22.10
2022-08-23T16:08:20.180Z,21.80
2022-08-23T16:10:48.537Z,21.90
2022-08-23T16:13:16.828Z,21.80
2022-08-23T16:15:46.377Z,21.90
2022-08-23T16:18:14.843Z,21.90
2022-08-23T16:20:43.414Z,21.80
2022-08-23T16:23:12.040Z,21.70
2022-08-23T16:25:40.461Z,21.50
2022-08-23T16:28:08.797Z,21.30
2022-08-23T16:30:37.439Z,21.20
2022-08-23T16:33:06.975Z,21.00
2022-08-23T16:35:35.145Z,20.90
2022-08-23T16:38:03.255Z,20.80
2022-08-23T16:40:31.439Z,20.70
2022-08-23T16:43:00.576Z,20.70
2022-08-23T16:45:28.922Z,20.60
2022-08-23T16:47:57.184Z,20.40
2022-08-23T16:50:26.946Z,20.30
2022-08-23T16:52:55.099Z,20.20
2022-08-23T16:55:23.311Z,20.20
2022-08-23T16:57:51.641Z,20.10
2022-08-23T17:00:19.930Z,20.10
2022-08-23T17:02:48.178Z,20.00
2022-08-23T17:05:19.022Z,20.10
2022-08-23T17:07:49.274Z,20.10
2022-08-23T17:10:19.483Z,20.20
2022-08-23T17:12:50.369Z,20.30
2022-08-23T17:15:21.132Z,20.20
2022-08-23T17:17:49.465Z,20.20
2022-08-23T17:20:18.779Z,20.20
2022-08-23T17:22:49.347Z,20.20
2022-08-23T17:25:18.176Z,20.10
2022-08-23T17:27:48.125Z,19.90
2022-08-23T17:30:19.265Z,19.90
2022-08-23T17:32:48.870Z,19.70
2022-08-23T17:35:19.863Z,19.60
2022-08-23T17:37:49.876Z,19.50
2022-08-23T17:40:21.421Z,19.40
2022-08-23T17:42:49.996Z,19.30
2022-08-23T17:45:19.524Z,19.20
2022-08-23T17:47:48.669Z,19.00
2022-08-23T17:50:18.267Z,18.90
2022-08-23T17:52:46.784Z,18.80
2022-08-23T17:55:18.458Z,18.70
2022-08-23T17:57:50.247Z,18.50
2022-08-23T18:00:20.684Z,18.50
2022-08-23T18:02:49.191Z,18.40
2022-08-23T18:05:17.842Z,18.30
2022-08-23T18:07:47.091Z,18.30
2022-08-23T18:10:16.852Z,18.20
2022-08-23T18:12:45.483Z,18.20
2022-08-23T18:15:14.191Z,18.10
2022-08-23T18:17:42.739Z,18.00
2022-08-23T18:20:12.285Z,17.90
2022-08-23T18:22:41.480Z,17.80
2022-08-23T18:25:13.388Z,17.70
2022-08-23T18:28:00.268Z,17.60
2022-08-23T18:30:28.923Z,17.50
2022-08-23T18:32:57.477Z,17.40
2022-08-23T18:35:26.133Z,17.20
2022-08-23T18:37:54.565Z,17.10
2022-08-23T18:40:23.160Z,17.00
2022-08-23T18:42:52.882Z,16.90
2022-08-23T18:45:22.102Z,16.80
2022-08-23T18:47:52.886Z,16.70
2022-08-23T18:50:21.609Z,16.60
2022-08-23T18:52:49.934Z,16.50
2022-08-23T18:55:20.325Z,16.40
2022-08-23T18:57:48.566Z,16.30
2022-08-23T19:00:18.230Z,16.20
2022-08-23T19:02:46.565Z,16.10
2022-08-23T19:05:14.817Z,16.00
2022-08-23T19:07:43.543Z,15.80
2022-08-23T19:10:17.173Z,15.70
2022-08-23T19:12:54.238Z,15.60
2022-08-23T19:15:24.970Z,15.50
2022-08-23T19:18:01.337Z,15.40
2022-08-23T19:20:32.816Z,15.30
2022-08-23T19:23:01.368Z,15.20
2022-08-23T19:25:31.702Z,15.10
2022-08-23T19:28:00.019Z,15.00
2022-08-23T19:30:29.779Z,14.90
2022-08-23T19:32:58.973Z,14.80
2022-08-23T19:35:30.225Z,14.70
2022-08-23T19:37:58.943Z,14.60
2022-08-23T19:40:27.142Z,14.60
2022-08-23T19:42:55.496Z,14.50
2022-08-23T19:45:23.655Z,14.50
2022-08-23T19:47:54.018Z,14.40
2022-08-23T19:50:24.015Z,14.30
2022-08-23T19:52:52.577Z,14.20
2022-08-23T19:55:21.576Z,14.20
2022-08-23T19:57:50.013Z,14.20
2022-08-23T20:00:19.764Z,14.10
2022-08-23T20:02:48.261Z,14.10
2022-08-23T20:05:18.738Z,14.10
2022-08-23T20:07:47.535Z,14.10
2022-08-23T20:10:16.374Z,14.10
2022-08-23T20:12:44.593Z,14.10
2022-08-23T20:15:14.268Z,14.10
2022-08-23T20:17:42.700Z,14.10
2022-08-23T20:20:13.785Z,14.10
2022-08-23T20:23:00.889Z,14.10
2022-08-23T20:25:30.837Z,14.10
2022-08-23T20:27:59.410Z,14.10
2022-08-23T20:30:27.606Z,14.10
2022-08-23T20:32:55.796Z,14.20
2022-08-23T20:35:24.140Z,14.10
2022-08-23T20:37:53.778Z,14.20
2022-08-23T20:40:23.243Z,14.20
2022-08-23T20:42:51.525Z,14.20
2022-08-23T20:45:20.185Z,14.30
2022-08-23T20:47:48.534Z,14.30
2022-08-23T20:50:17.023Z,14.30
2022-08-23T20:52:45.260Z,14.40
2022-08-23T20:55:16.822Z,14.40
2022-08-23T20:57:45.051Z,14.40
2022-08-23T21:00:14.252Z,14.50
2022-08-23T21:02:42.492Z,14.50
2022-08-23T21:05:11.191Z,14.50
2022-08-23T21:07:40.215Z,14.50
2022-08-23T21:10:10.696Z,14.50
2022-08-23T21:12:40.563Z,14.40
2022-08-23T21:15:11.166Z,14.40
2022-08-23T21:17:39.495Z,14.40
2022-08-23T21:20:08.565Z,14.40
2022-08-23T21:22:37.205Z,14.40
2022-08-23T21:25:06.219Z,14.40
2022-08-23T21:27:34.742Z,14.40
2022-08-23T21:30:05.282Z,14.40
2022-08-23T21:32:34.171Z,14.50
2022-08-23T21:35:03.251Z,14.40
2022-08-23T21:37:31.376Z,14.40
2022-08-23T21:39:59.601Z,14.50
2022-08-23T21:42:27.918Z,14.50
2022-08-23T21:44:56.043Z,14.50
2022-08-23T21:47:26.163Z,14.50
2022-08-23T21:49:54.447Z,14.50
2022-08-23T21:52:22.607Z,14.50
2022-08-23T21:54:50.789Z,14.50
2022-08-23T21:57:18.982Z,14.50
2022-08-23T21:59:47.202Z,14.50
2022-08-23T22:02:15.667Z,14.50
2022-08-23T22:04:45.156Z,14.50
2022-08-23T22:07:13.370Z,14.60
2022-08-23T22:09:41.692Z,14.60
2022-08-23T22:12:10.060Z,14.60
2022-08-23T22:14:38.461Z,14.60
2022-08-23T22:17:07.070Z,14.60
2022-08-23T22:19:35.217Z,14.60
2022-08-23T22:22:04.984Z,14.60
2022-08-23T22:24:33.148Z,14.60
2022-08-23T22:27:01.418Z,14.50
2022-08-23T22:29:29.774Z,14.50
2022-08-23T22:31:58.036Z,14.50
2022-08-23T22:34:26.182Z,14.40
2022-08-23T22:36:55.825Z,14.40
2022-08-23T22:39:26.037Z,14.30
2022-08-23T22:41:55.023Z,14.30
2022-08-23T22:44:23.179Z,14.20
2022-08-23T22:46:51.265Z,14.20
2022-08-23T22:49:19.379Z,14.10
2022-08-23T22:51:49.615Z,14.00
2022-08-23T22:54:23.368Z,13.90
2022-08-23T22:56:54.309Z,13.90
2022-08-23T22:59:25.817Z,13.80
2022-08-23T23:02:03.321Z,13.80
2022-08-23T23:04:32.575Z,13.70
2022-08-23T23:07:00.834Z,13.70
2022-08-23T23:09:29.298Z,13.60
2022-08-23T23:11:58.797Z,13.60
2022-08-23T23:14:26.940Z,13.50
2022-08-23T23:16:55.145Z,13.50
2022-08-23T23:19:41.002Z,13.50
2022-08-23T23:22:10.925Z,13.40
2022-08-23T23:24:40.681Z,13.40
2022-08-23T23:27:10.165Z,13.30
2022-08-23T23:29:38.668Z,13.30
2022-08-23T23:32:07.493Z,13.30
2022-08-23T23:34:37.976Z,13.20
2022-08-23T23:37:06.767Z,13.20
2022-08-23T23:39:34.902Z,13.20
2022-08-23T23:42:03.017Z,13.20
2022-08-23T23:44:32.478Z,13.20
2022-08-23T23:47:01.503Z,13.10
2022-08-23T23:49:32.795Z,13.10
2022-08-23T23:52:03.065Z,13.00
2022-08-23T23:54:31.704Z,13.00
2022-08-23T23:57:00.246Z,12.90
2022-08-23T23:59:28.398Z,12.90
